Lady Mary — WCY4834 — position and weather

sailwx.info

Track history (hours):
 
Tides and Currents Weather Stations Pressure Air Temp Water Temp Dewpoint Dewpoint Depression Visibility Wind Speed Wind Dir Waves Ship Positions

Lady Mary

Owner: BLACKMAN, JOHN H, SEATTLE, WA. More information available from US FCC via Universal Licensing System and Coast Guard Vessel Documentation Center.

Last reported at 2015-Aug-02 15:29 UTC. Time now 2015-Aug-02 16:28 UTC.
Position N 47°40' W 122°13'.

Length 26 m.

Type: Passenger vessel. MMSI: 367013060.

Date/timePositionNaut miles runAvg speedWind from/ knotsBaromVisibWave heightAir tempDewpointWater temp
2015-Aug-02 15:29N 47°40' W 122°13'0 0.0
2015-Aug-02 14:29N 47°40' W 122°13'0 0.0
2015-Aug-02 13:30N 47°40' W 122°13'0 0.0
2015-Aug-02 12:31N 47°40' W 122°13'0 0.0
2015-Aug-02 08:33N 47°40' W 122°13'0 0.0
2015-Aug-02 08:22N 47°40' W 122°13'6 6.8
2015-Aug-02 07:34N 47°39' W 122°20'0 0.0
2015-Aug-02 07:33N 47°39' W 122°20'1 0.7
2015-Aug-02 06:11N 47°38' W 122°20'0 0.0
2015-Aug-02 06:08N 47°38' W 122°20'2 2.8
2015-Aug-02 05:33N 47°39' W 122°19'4 4.1
2015-Aug-02 04:33N 47°36' W 122°14'0 3.8
2015-Aug-02 04:33N 47°36' W 122°14'2 1.8
2015-Aug-02 03:33N 47°38' W 122°15'0 5.1
2015-Aug-02 03:33N 47°38' W 122°15'3 3.1
2015-Aug-02 02:33N 47°38' W 122°20'0 3.5
2015-Aug-02 02:33N 47°38' W 122°20'1 0.5
2015-Aug-02 01:33N 47°38' W 122°20'0 0.0
2015-Aug-02 01:33N 47°38' W 122°20'0 0.0
2015-Aug-02 00:33N 47°38' W 122°20'0 0.0
2015-Aug-02 00:13N 47°38' W 122°20'2 2.9
2015-Aug-01 23:33N 47°39' W 122°18'1 6.9
2015-Aug-01 23:27N 47°39' W 122°17'3 3.3
2015-Aug-01 22:25N 47°40' W 122°13'0 0.0
2015-Aug-01 22:16N 47°40' W 122°13'3 4.5
2015-Aug-01 21:33N 47°38' W 122°15'0 8.2
2015-Aug-01 21:31N 47°37' W 122°15'1 1.2
2015-Aug-01 20:27N 47°37' W 122°17'1 1.1
2015-Aug-01 19:37N 47°37' W 122°15'0 6.3
2015-Aug-01 19:33N 47°37' W 122°15'0 6.9
2015-Aug-01 19:32N 47°37' W 122°15'4 1.2
2015-Aug-01 16:41N 47°40' W 122°13'0 0.0
2015-Aug-01 16:26N 47°40' W 122°13'0 0.0
2015-Aug-01 15:21N 47°40' W 122°13'0 0.0
2015-Aug-01 15:06N 47°40' W 122°13'0 0.0
2015-Aug-01 14:10N 47°40' W 122°13'0 0.0
2015-Aug-01 14:01N 47°40' W 122°13'0 0.0
2015-Aug-01 13:22N 47°40' W 122°13'0 0.0
2015-Aug-01 12:55N 47°40' W 122°13'0 0.0
2015-Aug-01 11:23N 47°40' W 122°13'0 0.0
2015-Aug-01 10:18N 47°40' W 122°13'0 0.0
2015-Aug-01 10:15N 47°40' W 122°13'0 0.0
2015-Aug-01 07:32N 47°40' W 122°13'0 0.4
2015-Aug-01 07:06N 47°40' W 122°13'4 7.7
2015-Aug-01 06:33N 47°39' W 122°19'1 5.4
2015-Aug-01 06:25N 47°39' W 122°20'1 4.5
2015-Aug-01 06:06N 47°38' W 122°20'0 0.0
2015-Aug-01 05:33N 47°38' W 122°20'3 2.8
2015-Aug-01 04:33N 47°39' W 122°17'0 4.5
2015-Aug-01 04:31N 47°39' W 122°17'2 2.3
2015-Aug-01 03:33N 47°37' W 122°15'0 7.3
2015-Aug-01 03:30N 47°37' W 122°15'4 4.1
2015-Aug-01 02:33N 47°38' W 122°20'0 3.7
2015-Aug-01 02:30N 47°38' W 122°20'1 0.6
2015-Aug-01 01:31N 47°38' W 122°20'0 0.1
2015-Aug-01 01:25N 47°38' W 122°20'0 0.0
2015-Aug-01 00:31N 47°38' W 122°20'0 0.0
2015-Aug-01 00:25N 47°38' W 122°20'0 0.0
2015-Jul-31 23:14N 47°38' W 122°20'0 0.0
2015-Jul-31 23:14N 47°38' W 122°20'0 0.1
2015-Jul-31 22:25N 47°38' W 122°20'0 0.0
2015-Jul-31 22:19N 47°38' W 122°20'3 3.4
2015-Jul-31 21:34N 47°39' W 122°17'0 5.3
2015-Jul-31 21:30N 47°39' W 122°17'2 1.7
2015-Jul-31 20:19N 47°37' W 122°17'0 2.3
2015-Jul-31 20:09N 47°37' W 122°17'2 3.6
2015-Jul-31 19:31N 47°39' W 122°18'0 7.0
2015-Jul-31 19:30N 47°39' W 122°19'2 1.1
2015-Jul-31 18:04N 47°38' W 122°20'0 0.0
2015-Jul-31 18:04N 47°38' W 122°20'0 0.0
2015-Jul-31 16:29N 47°38' W 122°20'0 0.0
2015-Jul-31 16:29N 47°38' W 122°20'1 1.1
2015-Jul-31 15:33N 47°39' W 122°21'0 2.4
2015-Jul-31 15:29N 47°39' W 122°20'6 2.7
2015-Jul-31 13:23N 47°40' W 122°13'0 0.0
2015-Jul-31 12:23N 47°40' W 122°13'0 0.0
2015-Jul-31 11:30N 47°40' W 122°13'0 0.0
2015-Jul-31 10:25N 47°40' W 122°13'0 0.0
2015-Jul-31 09:31N 47°40' W 122°13'0 0.0
2015-Jul-31 08:38N 47°40' W 122°13'0 0.1
2015-Jul-31 08:32N 47°40' W 122°13'0 0.0
2015-Jul-31 05:28N 47°40' W 122°13'0 0.0
2015-Jul-31 04:17N 47°40' W 122°13'0 0.0
2015-Jul-31 02:30N 47°40' W 122°13'0 0.0
2015-Jul-31 01:31N 47°40' W 122°13'0 0.0
2015-Jul-31 00:57N 47°40' W 122°13'0 0.1
2015-Jul-31 00:33N 47°40' W 122°13'1 6.9
2015-Jul-31 00:28N 47°40' W 122°13'2 2.5
2015-Jul-30 23:33N 47°38' W 122°15'0 0.0
2015-Jul-30 23:33N 47°38' W 122°15'3 2.8
2015-Jul-30 22:33N 47°40' W 122°13'1 1.0
2015-Jul-30 21:48N 47°40' W 122°13'2 7.6
2015-Jul-30 21:33N 47°38' W 122°15'1 6.3
2015-Jul-30 21:27N 47°38' W 122°15'2 1.2
2015-Jul-30 20:05N 47°36' W 122°16'0 3.7
2015-Jul-30 19:57N 47°36' W 122°15'2 5.6
2015-Jul-30 19:32N 47°38' W 122°15'0 0.0
2015-Jul-30 19:32N 47°38' W 122°15'2 2.2
2015-Jul-30 18:27N 47°40' W 122°13'0 0.0
2015-Jul-30 17:28N 47°40' W 122°13'3 6.5
2015-Jul-30 16:57N 47°39' W 122°17'2 5.1
2015-Jul-30 16:33N 47°39' W 122°20'0 5.0
2015-Jul-30 16:32N 47°39' W 122°20'2 2.1
2015-Jul-30 15:23N 47°40' W 122°23'0 0.6
2015-Jul-30 15:17N 47°40' W 122°23'4 5.3
2015-Jul-30 14:33N 47°39' W 122°18'0 6.2
2015-Jul-30 14:31N 47°39' W 122°17'3 3.2
2015-Jul-30 13:25N 47°40' W 122°13'0 0.0
2015-Jul-30 12:26N 47°40' W 122°13'0 0.0
2015-Jul-30 11:27N 47°40' W 122°13'0 0.0
2015-Jul-30 10:33N 47°40' W 122°13'0 0.0
2015-Jul-30 09:28N 47°40' W 122°13'0 0.0
2015-Jul-30 08:17N 47°40' W 122°13'0 0.0
2015-Jul-30 07:29N 47°40' W 122°13'0 0.0
2015-Jul-30 06:27N 47°40' W 122°13'0 0.0
2015-Jul-30 03:32N 47°40' W 122°13'0 0.0
2015-Jul-30 02:59N 47°40' W 122°13'0 0.0
2015-Jul-30 01:39N 47°40' W 122°13'0 0.0
2015-Jul-30 00:10N 47°40' W 122°13'0 2.5
2015-Jul-30 00:00N 47°40' W 122°13'3 6.8
2015-Jul-29 23:31N 47°38' W 122°16'0 8.5
2015-Jul-29 23:29N 47°37' W 122°16'4 1.9
2015-Jul-29 21:33N 47°40' W 122°13'0 2.0
2015-Jul-29 21:29N 47°40' W 122°13'6 6.3
2015-Jul-29 20:33N 47°39' W 122°21'0 6.6
2015-Jul-29 20:29N 47°39' W 122°22'3 2.7
2015-Jul-29 19:29N 47°39' W 122°18'0 6.9
2015-Jul-29 19:29N 47°39' W 122°18'4 3.5
2015-Jul-29 18:24N 47°40' W 122°13'0 0.0
2015-Jul-29 17:19N 47°40' W 122°13'0 0.0
2015-Jul-29 16:58N 47°40' W 122°13'0 0.0
2015-Jul-29 16:31N 47°40' W 122°13'0 0.0
2015-Jul-29 15:26N 47°40' W 122°13'0 0.0
2015-Jul-29 14:15N 47°40' W 122°13'0 0.0
2015-Jul-29 13:33N 47°40' W 122°13'0 0.0
2015-Jul-29 12:10N 47°40' W 122°13'0 0.0
2015-Jul-29 11:47N 47°40' W 122°13'0 0.0
2015-Jul-29 11:23N 47°40' W 122°13'0 0.0
2015-Jul-29 10:30N 47°40' W 122°13'0 0.0
2015-Jul-29 09:30N 47°40' W 122°13'0 0.0
2015-Jul-29 08:52N 47°40' W 122°13'0 0.0
2015-Jul-29 08:31N 47°40' W 122°13'0 0.0
2015-Jul-29 07:31N 47°40' W 122°13'0 0.0
2015-Jul-29 07:31N 47°40' W 122°13'0 0.0
2015-Jul-29 06:32N 47°40' W 122°13'0 0.0
2015-Jul-29 05:51N 47°40' W 122°13'0 0.0
2015-Jul-29 05:27N 47°40' W 122°13'0 0.0
2015-Jul-29 03:10N 47°40' W 122°13'0 0.0
2015-Jul-29 03:10N 47°40' W 122°13'0 0.0
2015-Jul-29 02:17N 47°40' W 122°13'0 0.0
2015-Jul-29 02:05N 47°40' W 122°13'0 0.0
2015-Jul-29 00:06N 47°40' W 122°13'1 3.0
2015-Jul-28 23:56N 47°40' W 122°13'3 7.7
2015-Jul-28 23:33N 47°38' W 122°16'0 8.7
2015-Jul-28 23:31N 47°38' W 122°16'4 3.6
2015-Jul-28 22:32N 47°40' W 122°13'0 0.3
2015-Jul-28 22:00N 47°40' W 122°13'3 7.5
2015-Jul-28 21:33N 47°38' W 122°16'1 9.1
2015-Jul-28 21:25N 47°37' W 122°15'4 1.4
2015-Jul-28 18:31N 47°40' W 122°13'0 0.0
2015-Jul-28 17:31N 47°40' W 122°13'0 0.0
2015-Jul-28 16:26N 47°40' W 122°13'0 0.0
2015-Jul-28 15:53N 47°40' W 122°13'0 0.0
2015-Jul-28 15:27N 47°40' W 122°13'0 0.0
2015-Jul-28 14:33N 47°40' W 122°13'0 0.0
2015-Jul-28 12:11N 47°40' W 122°13'0 0.0
2015-Jul-28 11:29N 47°40' W 122°13'0 0.0
2015-Jul-28 10:33N 47°40' W 122°13'0 0.0
2015-Jul-28 10:24N 47°40' W 122°13'0 0.0
2015-Jul-28 09:25N 47°40' W 122°13'0 0.0
2015-Jul-28 08:31N 47°40' W 122°13'0 0.1
2015-Jul-28 08:28N 47°40' W 122°13'0 0.0
2015-Jul-28 07:32N 47°40' W 122°13'0 0.0
2015-Jul-28 06:48N 47°40' W 122°13'0 0.0
2015-Jul-28 06:33N 47°40' W 122°13'0 0.0
2015-Jul-28 06:18N 47°40' W 122°13'0 0.0
2015-Jul-28 05:27N 47°40' W 122°13'0 0.0
2015-Jul-28 04:28N 47°40' W 122°13'0 0.0
2015-Jul-28 04:07N 47°40' W 122°13'4 6.4
2015-Jul-28 03:33N 47°39' W 122°17'0 0.0
2015-Jul-28 03:33N 47°39' W 122°17'1 0.7
2015-Jul-28 02:33N 47°39' W 122°17'0 0.0
2015-Jul-28 02:33N 47°39' W 122°17'3 2.9
2015-Jul-28 01:26N 47°40' W 122°13'0 0.0
2015-Jul-28 00:33N 47°40' W 122°13'0 0.0
2015-Jul-28 00:12N 47°40' W 122°13'3 4.8
2015-Jul-27 23:33N 47°39' W 122°16'0 5.7
2015-Jul-27 23:32N 47°39' W 122°17'3 3.2
2015-Jul-27 22:33N 47°40' W 122°13'1 1.3
2015-Jul-27 21:53N 47°40' W 122°14'3 7.4
2015-Jul-27 21:32N 47°38' W 122°16'0 8.5
2015-Jul-27 21:29N 47°38' W 122°16'4 1.1
2015-Jul-27 18:06N 47°40' W 122°13'0 0.0
2015-Jul-27 17:30N 47°40' W 122°13'0 0.0
2015-Jul-27 16:31N 47°40' W 122°13'0 0.0
2015-Jul-27 16:16N 47°40' W 122°13'0 0.0
2015-Jul-27 15:32N 47°40' W 122°13'0 0.0
2015-Jul-27 14:56N 47°40' W 122°13'0 0.0
2015-Jul-27 14:32N 47°40' W 122°13'0 0.0
2015-Jul-27 13:36N 47°40' W 122°13'0 0.0
2015-Jul-27 13:33N 47°40' W 122°13'0 0.0
2015-Jul-27 12:28N 47°40' W 122°13'0 0.0
2015-Jul-27 11:28N 47°40' W 122°13'0 0.0
2015-Jul-27 10:29N 47°40' W 122°13'0 0.0
2015-Jul-27 09:33N 47°40' W 122°13'0 0.0
2015-Jul-27 08:30N 47°40' W 122°13'0 0.0
2015-Jul-27 07:31N 47°40' W 122°13'0 0.0
2015-Jul-27 06:41N 47°40' W 122°13'0 0.0
2015-Jul-27 06:32N 47°40' W 122°13'0 0.0
2015-Jul-27 06:05N 47°40' W 122°13'0 0.0
2015-Jul-27 05:32N 47°40' W 122°13'1 1.5
2015-Jul-27 04:33N 47°39' W 122°14'0 5.3
2015-Jul-27 04:31N 47°39' W 122°14'4 4.5
2015-Jul-27 03:33N 47°38' W 122°20'0 4.9
2015-Jul-27 03:31N 47°38' W 122°20'4 4.3
2015-Jul-27 02:33N 47°40' W 122°15'0 5.4
2015-Jul-27 02:30N 47°40' W 122°15'2 1.6
2015-Jul-27 01:33N 47°40' W 122°13'0 0.0
2015-Jul-27 01:30N 47°40' W 122°13'0 0.1
2015-Jul-27 00:33N 47°40' W 122°12'0 0.0
2015-Jul-27 00:30N 47°40' W 122°12'3 3.4
2015-Jul-26 23:33N 47°39' W 122°17'1 7.5
2015-Jul-26 23:24N 47°38' W 122°16'4 4.5
2015-Jul-26 22:33N 47°40' W 122°13'0 0.0
2015-Jul-26 22:15N 47°40' W 122°13'2 3.4
2015-Jul-26 21:33N 47°39' W 122°16'3 7.0
2015-Jul-26 21:10N 47°37' W 122°15'4 6.6
2015-Jul-26 20:33N 47°40' W 122°13'0 0.1
2015-Jul-26 20:05N 47°40' W 122°13'3 6.0
2015-Jul-26 19:33N 47°39' W 122°17'0 6.9
2015-Jul-26 19:30N 47°38' W 122°16'3 3.5
2015-Jul-26 18:33N 47°40' W 122°13'0 0.0
2015-Jul-26 17:54N 47°40' W 122°13'0 0.0
2015-Jul-26 17:33N 47°40' W 122°13'0 0.0
2015-Jul-26 16:33N 47°40' W 122°13'0 0.0
2015-Jul-26 15:38N 47°40' W 122°13'0 0.0
2015-Jul-26 15:33N 47°40' W 122°13'0 0.0
2015-Jul-26 14:33N 47°40' W 122°13'0 0.0
2015-Jul-26 13:33N 47°40' W 122°13'0 0.0
2015-Jul-26 12:34N 47°40' W 122°13'0 0.0
2015-Jul-26 12:34N 47°40' W 122°13'0 0.0
2015-Jul-26 12:24N 47°40' W 122°13'0 0.0
2015-Jul-26 11:34N 47°40' W 122°13'0 0.0
2015-Jul-26 11:13N 47°40' W 122°13'2 3.1
2015-Jul-26 10:33N 47°40' W 122°15'1 7.8
2015-Jul-26 10:24N 47°39' W 122°17'5 5.4
2015-Jul-26 09:31N 47°40' W 122°24'0 2.6
2015-Jul-26 09:28N 47°40' W 122°24'3 3.1
2015-Jul-26 08:34N 47°37' W 122°23'0 9.5
2015-Jul-26 08:33N 47°37' W 122°23'2 1.5
2015-Jul-26 07:33N 47°37' W 122°21'0 0.0
2015-Jul-26 07:32N 47°37' W 122°21'3 3.5
2015-Jul-26 06:33N 47°38' W 122°25'0 5.1
2015-Jul-26 06:33N 47°38' W 122°25'4 8.9
2015-Jul-26 06:08N 47°41' W 122°29'2 3.5
2015-Jul-26 05:33N 47°42' W 122°32'0 0.0
2015-Jul-26 04:33N 47°42' W 122°32'0 0.0
2015-Jul-26 04:33N 47°42' W 122°32'0 0.0
2015-Jul-26 03:33N 47°42' W 122°32'0 0.0
2015-Jul-26 03:33N 47°42' W 122°32'0 0.0
2015-Jul-26 02:33N 47°42' W 122°32'0 0.0
2015-Jul-26 02:33N 47°42' W 122°32'0 0.0
2015-Jul-26 01:33N 47°42' W 122°32'0 0.0
2015-Jul-26 01:33N 47°42' W 122°32'0 0.0
2015-Jul-26 00:33N 47°42' W 122°32'0 0.0
2015-Jul-26 00:33N 47°42' W 122°32'0 0.0
2015-Jul-25 23:33N 47°42' W 122°32'0 0.0
2015-Jul-25 23:33N 47°42' W 122°32'1 1.5
2015-Jul-25 22:33N 47°42' W 122°30'0 8.9
2015-Jul-25 22:32N 47°42' W 122°29'8 7.4
2015-Jul-25 21:31N 47°37' W 122°21'0 0.0
2015-Jul-25 21:07N 47°37' W 122°21'0 0.0
2015-Jul-25 20:33N 47°37' W 122°21'0 0.3
2015-Jul-25 20:32N 47°37' W 122°21'0 0.5
2015-Jul-25 19:33N 47°37' W 122°21'0 7.5
2015-Jul-25 19:32N 47°37' W 122°22'4 3.6
2015-Jul-25 18:33N 47°40' W 122°24'0 0.0
2015-Jul-25 18:32N 47°40' W 122°24'0 0.2
2015-Jul-25 17:33N 47°40' W 122°24'0 0.3
2015-Jul-25 17:32N 47°40' W 122°24'5 5.5
2015-Jul-25 16:33N 47°39' W 122°16'0 8.4
2015-Jul-25 16:32N 47°39' W 122°15'2 2.3
2015-Jul-25 15:34N 47°40' W 122°13'0 0.0
2015-Jul-25 14:34N 47°40' W 122°13'0 0.0
2015-Jul-25 13:33N 47°40' W 122°13'0 0.0
2015-Jul-25 12:33N 47°40' W 122°13'0 0.0
2015-Jul-25 11:33N 47°40' W 122°13'0 0.0
2015-Jul-25 11:06N 47°40' W 122°13'0 0.0
2015-Jul-25 10:32N 47°40' W 122°13'0 0.0
2015-Jul-25 09:33N 47°40' W 122°13'0 0.0
2015-Jul-25 08:35N 47°40' W 122°13'0 0.0
2015-Jul-25 08:33N 47°40' W 122°13'0 0.0
2015-Jul-25 07:40N 47°40' W 122°13'0 0.0
2015-Jul-25 07:33N 47°40' W 122°13'0 0.0
2015-Jul-25 06:31N 47°40' W 122°13'0 0.0
2015-Jul-25 05:33N 47°40' W 122°13'0 0.0
2015-Jul-25 04:33N 47°40' W 122°13'0 1.3
2015-Jul-25 04:25N 47°40' W 122°13'5 6.2
2015-Jul-25 03:34N 47°39' W 122°20'0 6.3
2015-Jul-25 03:30N 47°39' W 122°21'2 1.9
2015-Jul-25 02:31N 47°39' W 122°18'0 6.6
2015-Jul-25 02:30N 47°39' W 122°18'4 4.2
2015-Jul-25 01:33N 47°40' W 122°13'0 0.0
2015-Jul-25 01:14N 47°40' W 122°13'0 0.0
2015-Jul-25 00:33N 47°40' W 122°13'0 0.0
2015-Jul-24 23:33N 47°40' W 122°13'0 0.0
2015-Jul-24 23:14N 47°40' W 122°13'3 4.8
2015-Jul-24 22:33N 47°39' W 122°17'1 6.8
2015-Jul-24 22:24N 47°39' W 122°18'2 2.0
2015-Jul-24 21:29N 47°37' W 122°17'1 7.0
2015-Jul-24 21:20N 47°37' W 122°15'2 2.7
2015-Jul-24 20:32N 47°39' W 122°14'0 6.8
2015-Jul-24 20:30N 47°39' W 122°14'2 1.9
2015-Jul-24 19:32N 47°40' W 122°13'0 0.0
2015-Jul-24 18:33N 47°40' W 122°13'0 0.0
2015-Jul-24 17:33N 47°40' W 122°13'0 0.0
2015-Jul-24 16:33N 47°40' W 122°13'0 0.0
2015-Jul-24 15:33N 47°40' W 122°13'0 0.0
2015-Jul-24 14:33N 47°40' W 122°13'0 0.0
2015-Jul-24 13:33N 47°40' W 122°13'0 0.0
2015-Jul-24 12:58N 47°40' W 122°13'0 0.0
2015-Jul-24 12:33N 47°40' W 122°13'0 0.0
2015-Jul-24 12:18N 47°40' W 122°13'0 0.0
2015-Jul-24 11:33N 47°40' W 122°13'0 0.0
2015-Jul-24 11:33N 47°40' W 122°13'0 0.0
2015-Jul-24 10:33N 47°40' W 122°13'0 0.0
2015-Jul-24 10:18N 47°40' W 122°13'0 0.0
2015-Jul-24 09:33N 47°40' W 122°13'0 0.0
2015-Jul-24 09:33N 47°40' W 122°13'0 0.0
2015-Jul-24 08:33N 47°40' W 122°13'0 0.0
2015-Jul-24 08:33N 47°40' W 122°13'0 0.0
2015-Jul-24 07:33N 47°40' W 122°13'0 0.0
2015-Jul-24 06:52N 47°40' W 122°13'0 0.0
2015-Jul-24 06:33N 47°40' W 122°13'0 0.0
2015-Jul-24 06:12N 47°40' W 122°13'0 0.0
2015-Jul-24 05:33N 47°40' W 122°13'0 0.0
2015-Jul-24 05:32N 47°40' W 122°13'0 0.0
2015-Jul-24 04:33N 47°40' W 122°13'0 0.0
2015-Jul-24 03:31N 47°40' W 122°13'0 0.0
2015-Jul-24 02:33N 47°40' W 122°13'0 0.0
2015-Jul-24 01:33N 47°40' W 122°13'0 0.0
2015-Jul-24 00:33N 47°40' W 122°13'0 0.0
2015-Jul-24 00:18N 47°40' W 122°13'4 4.8
2015-Jul-23 23:32N 47°38' W 122°16'4 3.7
2015-Jul-23 22:34N 47°40' W 122°13'0 0.0
2015-Jul-23 22:26N 47°40' W 122°13'4 3.8
2015-Jul-23 21:25N 47°38' W 122°16'0 8.2
2015-Jul-23 21:24N 47°37' W 122°16'4 4.6
2015-Jul-23 20:33N 47°40' W 122°13'0 0.0
2015-Jul-23 19:43N 47°40' W 122°13'0 0.0
2015-Jul-23 19:33N 47°40' W 122°13'0 0.0
2015-Jul-23 19:17N 47°40' W 122°13'0 0.0
2015-Jul-23 18:33N 47°40' W 122°13'0 0.0
2015-Jul-23 18:27N 47°40' W 122°13'0 0.0
2015-Jul-23 15:29N 47°40' W 122°13'  
Track history (hours):
 
Tides and Currents Weather Stations Pressure Air Temp Water Temp Dewpoint Dewpoint Depression Visibility Wind Speed Wind Dir Waves Ship Positions

Lady Mary

Owner: BLACKMAN, JOHN H, SEATTLE, WA. More information available from US FCC via Universal Licensing System and Coast Guard Vessel Documentation Center.

Last reported at 2015-Aug-02 15:29 UTC. Time now 2015-Aug-02 16:28 UTC.
Position N 47°40' W 122°13'.

Length 26 m.

Type: Passenger vessel. MMSI: 367013060.

Date/timePositionNaut miles runAvg speedWind from/ knotsBaromVisibWave heightAir tempDewpointWater temp
2015-Aug-02 15:29N 47°40' W 122°13'0 0.0
2015-Aug-02 14:29N 47°40' W 122°13'0 0.0
2015-Aug-02 13:30N 47°40' W 122°13'0 0.0
2015-Aug-02 12:31N 47°40' W 122°13'0 0.0
2015-Aug-02 08:33N 47°40' W 122°13'0 0.0
2015-Aug-02 08:22N 47°40' W 122°13'6 6.8
2015-Aug-02 07:34N 47°39' W 122°20'0 0.0
2015-Aug-02 07:33N 47°39' W 122°20'1 0.7
2015-Aug-02 06:11N 47°38' W 122°20'0 0.0
2015-Aug-02 06:08N 47°38' W 122°20'2 2.8
2015-Aug-02 05:33N 47°39' W 122°19'4 4.1
2015-Aug-02 04:33N 47°36' W 122°14'0 3.8
2015-Aug-02 04:33N 47°36' W 122°14'2 1.8
2015-Aug-02 03:33N 47°38' W 122°15'0 5.1
2015-Aug-02 03:33N 47°38' W 122°15'3 3.1
2015-Aug-02 02:33N 47°38' W 122°20'0 3.5
2015-Aug-02 02:33N 47°38' W 122°20'1 0.5
2015-Aug-02 01:33N 47°38' W 122°20'0 0.0
2015-Aug-02 01:33N 47°38' W 122°20'0 0.0
2015-Aug-02 00:33N 47°38' W 122°20'0 0.0
2015-Aug-02 00:13N 47°38' W 122°20'2 2.9
2015-Aug-01 23:33N 47°39' W 122°18'1 6.9
2015-Aug-01 23:27N 47°39' W 122°17'3 3.3
2015-Aug-01 22:25N 47°40' W 122°13'0 0.0
2015-Aug-01 22:16N 47°40' W 122°13'3 4.5
2015-Aug-01 21:33N 47°38' W 122°15'0 8.2
2015-Aug-01 21:31N 47°37' W 122°15'1 1.2
2015-Aug-01 20:27N 47°37' W 122°17'1 1.1
2015-Aug-01 19:37N 47°37' W 122°15'0 6.3
2015-Aug-01 19:33N 47°37' W 122°15'0 6.9
2015-Aug-01 19:32N 47°37' W 122°15'4 1.2
2015-Aug-01 16:41N 47°40' W 122°13'0 0.0
2015-Aug-01 16:26N 47°40' W 122°13'0 0.0
2015-Aug-01 15:21N 47°40' W 122°13'0 0.0
2015-Aug-01 15:06N 47°40' W 122°13'0 0.0
2015-Aug-01 14:10N 47°40' W 122°13'0 0.0
2015-Aug-01 14:01N 47°40' W 122°13'0 0.0
2015-Aug-01 13:22N 47°40' W 122°13'0 0.0
2015-Aug-01 12:55N 47°40' W 122°13'0 0.0
2015-Aug-01 11:23N 47°40' W 122°13'0 0.0
2015-Aug-01 10:18N 47°40' W 122°13'0 0.0
2015-Aug-01 10:15N 47°40' W 122°13'0 0.0
2015-Aug-01 07:32N 47°40' W 122°13'0 0.4
2015-Aug-01 07:06N 47°40' W 122°13'4 7.7
2015-Aug-01 06:33N 47°39' W 122°19'1 5.4
2015-Aug-01 06:25N 47°39' W 122°20'1 4.5
2015-Aug-01 06:06N 47°38' W 122°20'0 0.0
2015-Aug-01 05:33N 47°38' W 122°20'3 2.8
2015-Aug-01 04:33N 47°39' W 122°17'0 4.5
2015-Aug-01 04:31N 47°39' W 122°17'2 2.3
2015-Aug-01 03:33N 47°37' W 122°15'0 7.3
2015-Aug-01 03:30N 47°37' W 122°15'4 4.1
2015-Aug-01 02:33N 47°38' W 122°20'0 3.7
2015-Aug-01 02:30N 47°38' W 122°20'1 0.6
2015-Aug-01 01:31N 47°38' W 122°20'0 0.1
2015-Aug-01 01:25N 47°38' W 122°20'0 0.0
2015-Aug-01 00:31N 47°38' W 122°20'0 0.0
2015-Aug-01 00:25N 47°38' W 122°20'0 0.0
2015-Jul-31 23:14N 47°38' W 122°20'0 0.0
2015-Jul-31 23:14N 47°38' W 122°20'0 0.1
2015-Jul-31 22:25N 47°38' W 122°20'0 0.0
2015-Jul-31 22:19N 47°38' W 122°20'3 3.4
2015-Jul-31 21:34N 47°39' W 122°17'0 5.3
2015-Jul-31 21:30N 47°39' W 122°17'2 1.7
2015-Jul-31 20:19N 47°37' W 122°17'0 2.3
2015-Jul-31 20:09N 47°37' W 122°17'2 3.6
2015-Jul-31 19:31N 47°39' W 122°18'0 7.0
2015-Jul-31 19:30N 47°39' W 122°19'2 1.1
2015-Jul-31 18:04N 47°38' W 122°20'0 0.0
2015-Jul-31 18:04N 47°38' W 122°20'0 0.0
2015-Jul-31 16:29N 47°38' W 122°20'0 0.0
2015-Jul-31 16:29N 47°38' W 122°20'1 1.1
2015-Jul-31 15:33N 47°39' W 122°21'0 2.4
2015-Jul-31 15:29N 47°39' W 122°20'6 2.7
2015-Jul-31 13:23N 47°40' W 122°13'0 0.0
2015-Jul-31 12:23N 47°40' W 122°13'0 0.0
2015-Jul-31 11:30N 47°40' W 122°13'0 0.0
2015-Jul-31 10:25N 47°40' W 122°13'0 0.0
2015-Jul-31 09:31N 47°40' W 122°13'0 0.0
2015-Jul-31 08:38N 47°40' W 122°13'0 0.1
2015-Jul-31 08:32N 47°40' W 122°13'0 0.0
2015-Jul-31 05:28N 47°40' W 122°13'0 0.0
2015-Jul-31 04:17N 47°40' W 122°13'0 0.0
2015-Jul-31 02:30N 47°40' W 122°13'0 0.0
2015-Jul-31 01:31N 47°40' W 122°13'0 0.0
2015-Jul-31 00:57N 47°40' W 122°13'0 0.1
2015-Jul-31 00:33N 47°40' W 122°13'1 6.9
2015-Jul-31 00:28N 47°40' W 122°13'2 2.5
2015-Jul-30 23:33N 47°38' W 122°15'0 0.0
2015-Jul-30 23:33N 47°38' W 122°15'3 2.8
2015-Jul-30 22:33N 47°40' W 122°13'1 1.0
2015-Jul-30 21:48N 47°40' W 122°13'2 7.6
2015-Jul-30 21:33N 47°38' W 122°15'1 6.3
2015-Jul-30 21:27N 47°38' W 122°15'2 1.2
2015-Jul-30 20:05N 47°36' W 122°16'0 3.7
2015-Jul-30 19:57N 47°36' W 122°15'2 5.6
2015-Jul-30 19:32N 47°38' W 122°15'0 0.0
2015-Jul-30 19:32N 47°38' W 122°15'2 2.2
2015-Jul-30 18:27N 47°40' W 122°13'0 0.0
2015-Jul-30 17:28N 47°40' W 122°13'3 6.5
2015-Jul-30 16:57N 47°39' W 122°17'2 5.1
2015-Jul-30 16:33N 47°39' W 122°20'0 5.0
2015-Jul-30 16:32N 47°39' W 122°20'2 2.1
2015-Jul-30 15:23N 47°40' W 122°23'0 0.6
2015-Jul-30 15:17N 47°40' W 122°23'4 5.3
2015-Jul-30 14:33N 47°39' W 122°18'0 6.2
2015-Jul-30 14:31N 47°39' W 122°17'3 3.2
2015-Jul-30 13:25N 47°40' W 122°13'0 0.0
2015-Jul-30 12:26N 47°40' W 122°13'0 0.0
2015-Jul-30 11:27N 47°40' W 122°13'0 0.0
2015-Jul-30 10:33N 47°40' W 122°13'0 0.0
2015-Jul-30 09:28N 47°40' W 122°13'0 0.0
2015-Jul-30 08:17N 47°40' W 122°13'0 0.0
2015-Jul-30 07:29N 47°40' W 122°13'0 0.0
2015-Jul-30 06:27N 47°40' W 122°13'0 0.0
2015-Jul-30 03:32N 47°40' W 122°13'0 0.0
2015-Jul-30 02:59N 47°40' W 122°13'0 0.0
2015-Jul-30 01:39N 47°40' W 122°13'0 0.0
2015-Jul-30 00:10N 47°40' W 122°13'0 2.5
2015-Jul-30 00:00N 47°40' W 122°13'3 6.8
2015-Jul-29 23:31N 47°38' W 122°16'0 8.5
2015-Jul-29 23:29N 47°37' W 122°16'4 1.9
2015-Jul-29 21:33N 47°40' W 122°13'0 2.0
2015-Jul-29 21:29N 47°40' W 122°13'6 6.3
2015-Jul-29 20:33N 47°39' W 122°21'0 6.6
2015-Jul-29 20:29N 47°39' W 122°22'3 2.7
2015-Jul-29 19:29N 47°39' W 122°18'0 6.9
2015-Jul-29 19:29N 47°39' W 122°18'4 3.5
2015-Jul-29 18:24N 47°40' W 122°13'0 0.0
2015-Jul-29 17:19N 47°40' W 122°13'0 0.0
2015-Jul-29 16:58N 47°40' W 122°13'0 0.0
2015-Jul-29 16:31N 47°40' W 122°13'0 0.0
2015-Jul-29 15:26N 47°40' W 122°13'0 0.0
2015-Jul-29 14:15N 47°40' W 122°13'0 0.0
2015-Jul-29 13:33N 47°40' W 122°13'0 0.0
2015-Jul-29 12:10N 47°40' W 122°13'0 0.0
2015-Jul-29 11:47N 47°40' W 122°13'0 0.0
2015-Jul-29 11:23N 47°40' W 122°13'0 0.0
2015-Jul-29 10:30N 47°40' W 122°13'0 0.0
2015-Jul-29 09:30N 47°40' W 122°13'0 0.0
2015-Jul-29 08:52N 47°40' W 122°13'0 0.0
2015-Jul-29 08:31N 47°40' W 122°13'0 0.0
2015-Jul-29 07:31N 47°40' W 122°13'0 0.0
2015-Jul-29 07:31N 47°40' W 122°13'0 0.0
2015-Jul-29 06:32N 47°40' W 122°13'0 0.0
2015-Jul-29 05:51N 47°40' W 122°13'0 0.0
2015-Jul-29 05:27N 47°40' W 122°13'0 0.0
2015-Jul-29 03:10N 47°40' W 122°13'0 0.0
2015-Jul-29 03:10N 47°40' W 122°13'0 0.0
2015-Jul-29 02:17N 47°40' W 122°13'0 0.0
2015-Jul-29 02:05N 47°40' W 122°13'0 0.0
2015-Jul-29 00:06N 47°40' W 122°13'1 3.0
2015-Jul-28 23:56N 47°40' W 122°13'3 7.7
2015-Jul-28 23:33N 47°38' W 122°16'0 8.7
2015-Jul-28 23:31N 47°38' W 122°16'4 3.6
2015-Jul-28 22:32N 47°40' W 122°13'0 0.3
2015-Jul-28 22:00N 47°40' W 122°13'3 7.5
2015-Jul-28 21:33N 47°38' W 122°16'1 9.1
2015-Jul-28 21:25N 47°37' W 122°15'4 1.4
2015-Jul-28 18:31N 47°40' W 122°13'0 0.0
2015-Jul-28 17:31N 47°40' W 122°13'0 0.0
2015-Jul-28 16:26N 47°40' W 122°13'0 0.0
2015-Jul-28 15:53N 47°40' W 122°13'0 0.0
2015-Jul-28 15:27N 47°40' W 122°13'0 0.0
2015-Jul-28 14:33N 47°40' W 122°13'0 0.0
2015-Jul-28 12:11N 47°40' W 122°13'0 0.0
2015-Jul-28 11:29N 47°40' W 122°13'0 0.0
2015-Jul-28 10:33N 47°40' W 122°13'0 0.0
2015-Jul-28 10:24N 47°40' W 122°13'0 0.0
2015-Jul-28 09:25N 47°40' W 122°13'0 0.0
2015-Jul-28 08:31N 47°40' W 122°13'0 0.1
2015-Jul-28 08:28N 47°40' W 122°13'0 0.0
2015-Jul-28 07:32N 47°40' W 122°13'0 0.0
2015-Jul-28 06:48N 47°40' W 122°13'0 0.0
2015-Jul-28 06:33N 47°40' W 122°13'0 0.0
2015-Jul-28 06:18N 47°40' W 122°13'0 0.0
2015-Jul-28 05:27N 47°40' W 122°13'0 0.0
2015-Jul-28 04:28N 47°40' W 122°13'0 0.0
2015-Jul-28 04:07N 47°40' W 122°13'4 6.4
2015-Jul-28 03:33N 47°39' W 122°17'0 0.0
2015-Jul-28 03:33N 47°39' W 122°17'1 0.7
2015-Jul-28 02:33N 47°39' W 122°17'0 0.0
2015-Jul-28 02:33N 47°39' W 122°17'3 2.9
2015-Jul-28 01:26N 47°40' W 122°13'0 0.0
2015-Jul-28 00:33N 47°40' W 122°13'0 0.0
2015-Jul-28 00:12N 47°40' W 122°13'3 4.8
2015-Jul-27 23:33N 47°39' W 122°16'0 5.7
2015-Jul-27 23:32N 47°39' W 122°17'3 3.2
2015-Jul-27 22:33N 47°40' W 122°13'1 1.3
2015-Jul-27 21:53N 47°40' W 122°14'3 7.4
2015-Jul-27 21:32N 47°38' W 122°16'0 8.5
2015-Jul-27 21:29N 47°38' W 122°16'4 1.1
2015-Jul-27 18:06N 47°40' W 122°13'0 0.0
2015-Jul-27 17:30N 47°40' W 122°13'0 0.0
2015-Jul-27 16:31N 47°40' W 122°13'0 0.0
2015-Jul-27 16:16N 47°40' W 122°13'0 0.0
2015-Jul-27 15:32N 47°40' W 122°13'0 0.0
2015-Jul-27 14:56N 47°40' W 122°13'0 0.0
2015-Jul-27 14:32N 47°40' W 122°13'0 0.0
2015-Jul-27 13:36N 47°40' W 122°13'0 0.0
2015-Jul-27 13:33N 47°40' W 122°13'0 0.0
2015-Jul-27 12:28N 47°40' W 122°13'0 0.0
2015-Jul-27 11:28N 47°40' W 122°13'0 0.0
2015-Jul-27 10:29N 47°40' W 122°13'0 0.0
2015-Jul-27 09:33N 47°40' W 122°13'0 0.0
2015-Jul-27 08:30N 47°40' W 122°13'0 0.0
2015-Jul-27 07:31N 47°40' W 122°13'0 0.0
2015-Jul-27 06:41N 47°40' W 122°13'0 0.0
2015-Jul-27 06:32N 47°40' W 122°13'0 0.0
2015-Jul-27 06:05N 47°40' W 122°13'0 0.0
2015-Jul-27 05:32N 47°40' W 122°13'1 1.5
2015-Jul-27 04:33N 47°39' W 122°14'0 5.3
2015-Jul-27 04:31N 47°39' W 122°14'4 4.5
2015-Jul-27 03:33N 47°38' W 122°20'0 4.9
2015-Jul-27 03:31N 47°38' W 122°20'4 4.3
2015-Jul-27 02:33N 47°40' W 122°15'0 5.4
2015-Jul-27 02:30N 47°40' W 122°15'2 1.6
2015-Jul-27 01:33N 47°40' W 122°13'0 0.0
2015-Jul-27 01:30N 47°40' W 122°13'0 0.1
2015-Jul-27 00:33N 47°40' W 122°12'0 0.0
2015-Jul-27 00:30N 47°40' W 122°12'3 3.4
2015-Jul-26 23:33N 47°39' W 122°17'1 7.5
2015-Jul-26 23:24N 47°38' W 122°16'4 4.5
2015-Jul-26 22:33N 47°40' W 122°13'0 0.0
2015-Jul-26 22:15N 47°40' W 122°13'2 3.4
2015-Jul-26 21:33N 47°39' W 122°16'3 7.0
2015-Jul-26 21:10N 47°37' W 122°15'4 6.6
2015-Jul-26 20:33N 47°40' W 122°13'0 0.1
2015-Jul-26 20:05N 47°40' W 122°13'3 6.0
2015-Jul-26 19:33N 47°39' W 122°17'0 6.9
2015-Jul-26 19:30N 47°38' W 122°16'3 3.5
2015-Jul-26 18:33N 47°40' W 122°13'0 0.0
2015-Jul-26 17:54N 47°40' W 122°13'0 0.0
2015-Jul-26 17:33N 47°40' W 122°13'0 0.0
2015-Jul-26 16:33N 47°40' W 122°13'0 0.0
2015-Jul-26 15:38N 47°40' W 122°13'0 0.0
2015-Jul-26 15:33N 47°40' W 122°13'0 0.0
2015-Jul-26 14:33N 47°40' W 122°13'0 0.0
2015-Jul-26 13:33N 47°40' W 122°13'0 0.0
2015-Jul-26 12:34N 47°40' W 122°13'0 0.0
2015-Jul-26 12:34N 47°40' W 122°13'0 0.0
2015-Jul-26 12:24N 47°40' W 122°13'0 0.0
2015-Jul-26 11:34N 47°40' W 122°13'0 0.0
2015-Jul-26 11:13N 47°40' W 122°13'2 3.1
2015-Jul-26 10:33N 47°40' W 122°15'1 7.8
2015-Jul-26 10:24N 47°39' W 122°17'5 5.4
2015-Jul-26 09:31N 47°40' W 122°24'0 2.6
2015-Jul-26 09:28N 47°40' W 122°24'3 3.1
2015-Jul-26 08:34N 47°37' W 122°23'0 9.5
2015-Jul-26 08:33N 47°37' W 122°23'2 1.5
2015-Jul-26 07:33N 47°37' W 122°21'0 0.0
2015-Jul-26 07:32N 47°37' W 122°21'3 3.5
2015-Jul-26 06:33N 47°38' W 122°25'0 5.1
2015-Jul-26 06:33N 47°38' W 122°25'4 8.9
2015-Jul-26 06:08N 47°41' W 122°29'2 3.5
2015-Jul-26 05:33N 47°42' W 122°32'0 0.0
2015-Jul-26 04:33N 47°42' W 122°32'0 0.0
2015-Jul-26 04:33N 47°42' W 122°32'0 0.0
2015-Jul-26 03:33N 47°42' W 122°32'0 0.0
2015-Jul-26 03:33N 47°42' W 122°32'0 0.0
2015-Jul-26 02:33N 47°42' W 122°32'0 0.0
2015-Jul-26 02:33N 47°42' W 122°32'0 0.0
2015-Jul-26 01:33N 47°42' W 122°32'0 0.0
2015-Jul-26 01:33N 47°42' W 122°32'0 0.0
2015-Jul-26 00:33N 47°42' W 122°32'0 0.0
2015-Jul-26 00:33N 47°42' W 122°32'0 0.0
2015-Jul-25 23:33N 47°42' W 122°32'0 0.0
2015-Jul-25 23:33N 47°42' W 122°32'1 1.5
2015-Jul-25 22:33N 47°42' W 122°30'0 8.9
2015-Jul-25 22:32N 47°42' W 122°29'8 7.4
2015-Jul-25 21:31N 47°37' W 122°21'0 0.0
2015-Jul-25 21:07N 47°37' W 122°21'0 0.0
2015-Jul-25 20:33N 47°37' W 122°21'0 0.3
2015-Jul-25 20:32N 47°37' W 122°21'0 0.5
2015-Jul-25 19:33N 47°37' W 122°21'0 7.5
2015-Jul-25 19:32N 47°37' W 122°22'4 3.6
2015-Jul-25 18:33N 47°40' W 122°24'0 0.0
2015-Jul-25 18:32N 47°40' W 122°24'0 0.2
2015-Jul-25 17:33N 47°40' W 122°24'0 0.3
2015-Jul-25 17:32N 47°40' W 122°24'5 5.5
2015-Jul-25 16:33N 47°39' W 122°16'0 8.4
2015-Jul-25 16:32N 47°39' W 122°15'2 2.3
2015-Jul-25 15:34N 47°40' W 122°13'0 0.0
2015-Jul-25 14:34N 47°40' W 122°13'0 0.0
2015-Jul-25 13:33N 47°40' W 122°13'0 0.0
2015-Jul-25 12:33N 47°40' W 122°13'0 0.0
2015-Jul-25 11:33N 47°40' W 122°13'0 0.0
2015-Jul-25 11:06N 47°40' W 122°13'0 0.0
2015-Jul-25 10:32N 47°40' W 122°13'0 0.0
2015-Jul-25 09:33N 47°40' W 122°13'0 0.0
2015-Jul-25 08:35N 47°40' W 122°13'0 0.0
2015-Jul-25 08:33N 47°40' W 122°13'0 0.0
2015-Jul-25 07:40N 47°40' W 122°13'0 0.0
2015-Jul-25 07:33N 47°40' W 122°13'0 0.0
2015-Jul-25 06:31N 47°40' W 122°13'0 0.0
2015-Jul-25 05:33N 47°40' W 122°13'0 0.0
2015-Jul-25 04:33N 47°40' W 122°13'0 1.3
2015-Jul-25 04:25N 47°40' W 122°13'5 6.2
2015-Jul-25 03:34N 47°39' W 122°20'0 6.3
2015-Jul-25 03:30N 47°39' W 122°21'2 1.9
2015-Jul-25 02:31N 47°39' W 122°18'0 6.6
2015-Jul-25 02:30N 47°39' W 122°18'4 4.2
2015-Jul-25 01:33N 47°40' W 122°13'0 0.0
2015-Jul-25 01:14N 47°40' W 122°13'0 0.0
2015-Jul-25 00:33N 47°40' W 122°13'0 0.0
2015-Jul-24 23:33N 47°40' W 122°13'0 0.0
2015-Jul-24 23:14N 47°40' W 122°13'3 4.8
2015-Jul-24 22:33N 47°39' W 122°17'1 6.8
2015-Jul-24 22:24N 47°39' W 122°18'2 2.0
2015-Jul-24 21:29N 47°37' W 122°17'1 7.0
2015-Jul-24 21:20N 47°37' W 122°15'2 2.7
2015-Jul-24 20:32N 47°39' W 122°14'0 6.8
2015-Jul-24 20:30N 47°39' W 122°14'2 1.9
2015-Jul-24 19:32N 47°40' W 122°13'0 0.0
2015-Jul-24 18:33N 47°40' W 122°13'0 0.0
2015-Jul-24 17:33N 47°40' W 122°13'0 0.0
2015-Jul-24 16:33N 47°40' W 122°13'0 0.0
2015-Jul-24 15:33N 47°40' W 122°13'0 0.0
2015-Jul-24 14:33N 47°40' W 122°13'0 0.0
2015-Jul-24 13:33N 47°40' W 122°13'0 0.0
2015-Jul-24 12:58N 47°40' W 122°13'0 0.0
2015-Jul-24 12:33N 47°40' W 122°13'0 0.0
2015-Jul-24 12:18N 47°40' W 122°13'0 0.0
2015-Jul-24 11:33N 47°40' W 122°13'0 0.0
2015-Jul-24 11:33N 47°40' W 122°13'0 0.0
2015-Jul-24 10:33N 47°40' W 122°13'0 0.0
2015-Jul-24 10:18N 47°40' W 122°13'0 0.0
2015-Jul-24 09:33N 47°40' W 122°13'0 0.0
2015-Jul-24 09:33N 47°40' W 122°13'0 0.0
2015-Jul-24 08:33N 47°40' W 122°13'0 0.0
2015-Jul-24 08:33N 47°40' W 122°13'0 0.0
2015-Jul-24 07:33N 47°40' W 122°13'0 0.0
2015-Jul-24 06:52N 47°40' W 122°13'0 0.0
2015-Jul-24 06:33N 47°40' W 122°13'0 0.0
2015-Jul-24 06:12N 47°40' W 122°13'0 0.0
2015-Jul-24 05:33N 47°40' W 122°13'0 0.0
2015-Jul-24 05:32N 47°40' W 122°13'0 0.0
2015-Jul-24 04:33N 47°40' W 122°13'0 0.0
2015-Jul-24 03:31N 47°40' W 122°13'0 0.0
2015-Jul-24 02:33N 47°40' W 122°13'0 0.0
2015-Jul-24 01:33N 47°40' W 122°13'0 0.0
2015-Jul-24 00:33N 47°40' W 122°13'0 0.0
2015-Jul-24 00:18N 47°40' W 122°13'4 4.8
2015-Jul-23 23:32N 47°38' W 122°16'4 3.7
2015-Jul-23 22:34N 47°40' W 122°13'0 0.0
2015-Jul-23 22:26N 47°40' W 122°13'4 3.8
2015-Jul-23 21:25N 47°38' W 122°16'0 8.2
2015-Jul-23 21:24N 47°37' W 122°16'4 4.6
2015-Jul-23 20:33N 47°40' W 122°13'0 0.0
2015-Jul-23 19:43N 47°40' W 122°13'0 0.0
2015-Jul-23 19:33N 47°40' W 122°13'0 0.0
2015-Jul-23 19:17N 47°40' W 122°13'0 0.0
2015-Jul-23 18:33N 47°40' W 122°13'0 0.0
2015-Jul-23 18:27N 47°40' W 122°13'0 0.0
2015-Jul-23 15:29N 47°40' W 122°13'  

Dump ship's entire track history